ASQ585 KTVI-KATL
Flight info
| Callsign | ASQ585 |
|---|---|
| Flight time | 1h 9m |
| Altitude | 22000 |
| Route | DCT DAWWN DCT BEORN HOBTT2 |
| Aircraft | E121/L-SDFGHRY/S |
Departure
| Time | 2026-05-04 22:27 |
|---|---|
| Airport | Thomasville Regional Airport (KTVI) |
Arrival
| Time | 2026-05-04 23:36 |
|---|---|
| Airport | Hartsfield Jackson Atlanta International Airport (KATL) |
| Time | Latitude | Longitude | Altitude | Speed | Heading |
|---|---|---|---|---|---|
| 2026-05-04 22:02 | 30.89989 | -83.88075 | 241 ft | 0 kts | 176° |
| 2026-05-04 22:22 | 30.89639 | -83.88587 | 242 ft | 0 kts | 84° |
| 2026-05-04 22:23 | 30.90194 | -83.87582 | 244 ft | 758 kts | 141° |
| 2026-05-04 22:23 | 30.90717 | -83.88619 | 270 ft | 8 kts | 67° |
| 2026-05-04 22:23 | 30.90699 | -83.88563 | 268 ft | 1 kts | 131° |
| 2026-05-04 22:23 | 30.90697 | -83.88561 | 268 ft | 0 kts | 131° |
| 2026-05-04 22:24 | 30.90673 | -83.88529 | 266 ft | 13 kts | 132° |
| 2026-05-04 22:25 | 30.90667 | -83.88522 | 265 ft | 0 kts | 133° |
| 2026-05-04 22:25 | 30.90665 | -83.88519 | 265 ft | 6 kts | 133° |
| 2026-05-04 22:25 | 30.90368 | -83.88153 | 243 ft | 113 kts | 134° |
| 2026-05-04 22:26 | 30.89725 | -83.87356 | 370 ft | 150 kts | 134° |
| 2026-05-04 22:26 | 30.88983 | -83.86400 | 614 ft | 165 kts | 133° |
| 2026-05-04 22:26 | 30.88132 | -83.85400 | 625 ft | 183 kts | 137° |
| 2026-05-04 22:26 | 30.87177 | -83.84404 | 740 ft | 185 kts | 140° |
| 2026-05-04 22:27 | 30.86186 | -83.83447 | 892 ft | 185 kts | 141° |
| 2026-05-04 22:27 | 30.85390 | -83.82311 | 1011 ft | 185 kts | 109° |
| 2026-05-04 22:27 | 30.85492 | -83.80826 | 1133 ft | 194 kts | 64° |
| 2026-05-04 22:27 | 30.86472 | -83.79762 | 1254 ft | 199 kts | 23° |
| 2026-05-04 22:28 | 30.87840 | -83.79703 | 1377 ft | 201 kts | 344° |
| 2026-05-04 22:28 | 30.88873 | -83.80191 | 1496 ft | 201 kts | 337° |
| 2026-05-04 22:28 | 30.89283 | -83.80408 | 1543 ft | 201 kts | 336° |
| 2026-05-04 22:29 | 30.90331 | -83.80973 | 1675 ft | 202 kts | 335° |
| 2026-05-04 22:29 | 30.91591 | -83.81655 | 1829 ft | 202 kts | 335° |
| 2026-05-04 22:29 | 30.92869 | -83.82346 | 1974 ft | 203 kts | 335° |
| 2026-05-04 22:29 | 30.94149 | -83.83039 | 2127 ft | 203 kts | 335° |
| 2026-05-04 22:30 | 30.95431 | -83.83733 | 2278 ft | 203 kts | 335° |
| 2026-05-04 22:30 | 30.96511 | -83.84365 | 2404 ft | 202 kts | 328° |
| 2026-05-04 22:30 | 30.97616 | -83.85373 | 2553 ft | 202 kts | 319° |
| 2026-05-04 22:30 | 30.98687 | -83.86443 | 2704 ft | 203 kts | 320° |
| 2026-05-04 22:31 | 30.99759 | -83.87519 | 2854 ft | 204 kts | 319° |
| 2026-05-04 22:31 | 31.00834 | -83.88598 | 2995 ft | 204 kts | 320° |
| 2026-05-04 22:31 | 31.01915 | -83.89680 | 3145 ft | 204 kts | 320° |
| 2026-05-04 22:31 | 31.02993 | -83.90762 | 3296 ft | 205 kts | 319° |
| 2026-05-04 22:32 | 31.04074 | -83.91842 | 3442 ft | 205 kts | 319° |
| 2026-05-04 22:32 | 31.05156 | -83.92921 | 3590 ft | 205 kts | 319° |
| 2026-05-04 22:32 | 31.06239 | -83.94001 | 3743 ft | 205 kts | 319° |
| 2026-05-04 22:32 | 31.07326 | -83.95083 | 3892 ft | 206 kts | 319° |
| 2026-05-04 22:33 | 31.08414 | -83.96167 | 4042 ft | 206 kts | 319° |
| 2026-05-04 22:33 | 31.09491 | -83.97236 | 4193 ft | 206 kts | 319° |
| 2026-05-04 22:33 | 31.10001 | -83.97744 | 4264 ft | 206 kts | 319° |
| 2026-05-04 22:33 | 31.11090 | -83.98827 | 4415 ft | 206 kts | 320° |
| 2026-05-04 22:34 | 31.12185 | -83.99908 | 4571 ft | 207 kts | 320° |
| 2026-05-04 22:34 | 31.13282 | -84.00990 | 4731 ft | 207 kts | 320° |
| 2026-05-04 22:34 | 31.14380 | -84.02072 | 4879 ft | 207 kts | 319° |
| 2026-05-04 22:34 | 31.15423 | -84.03220 | 5025 ft | 206 kts | 315° |
| 2026-05-04 22:35 | 31.16402 | -84.04445 | 5176 ft | 206 kts | 309° |
| 2026-05-04 22:35 | 31.17308 | -84.05738 | 5327 ft | 206 kts | 309° |
| 2026-05-04 22:35 | 31.18209 | -84.07036 | 5474 ft | 205 kts | 309° |
| 2026-05-04 22:35 | 31.19102 | -84.08330 | 5623 ft | 204 kts | 308° |
| 2026-05-04 22:36 | 31.19997 | -84.09625 | 5780 ft | 205 kts | 308° |
| 2026-05-04 22:36 | 31.20773 | -84.10739 | 5902 ft | 205 kts | 309° |
| 2026-05-04 22:36 | 31.21669 | -84.12036 | 6050 ft | 205 kts | 308° |
| 2026-05-04 22:36 | 31.22563 | -84.13335 | 6217 ft | 205 kts | 309° |
| 2026-05-04 22:37 | 31.23457 | -84.14633 | 6370 ft | 205 kts | 309° |
| 2026-05-04 22:37 | 31.24354 | -84.15935 | 6513 ft | 206 kts | 309° |
| 2026-05-04 22:37 | 31.25250 | -84.17239 | 6660 ft | 206 kts | 308° |
| 2026-05-04 22:37 | 31.26151 | -84.18542 | 6803 ft | 206 kts | 309° |
| 2026-05-04 22:38 | 31.27058 | -84.19839 | 6948 ft | 206 kts | 309° |
| 2026-05-04 22:38 | 31.27963 | -84.21141 | 7089 ft | 207 kts | 308° |
| 2026-05-04 22:38 | 31.28870 | -84.22446 | 7236 ft | 206 kts | 308° |
| 2026-05-04 22:38 | 31.29762 | -84.23730 | 7382 ft | 206 kts | 309° |
| 2026-05-04 22:39 | 31.30669 | -84.25036 | 7527 ft | 207 kts | 308° |
| 2026-05-04 22:39 | 31.31581 | -84.26344 | 7677 ft | 208 kts | 309° |
| 2026-05-04 22:39 | 31.32495 | -84.27651 | 7823 ft | 207 kts | 309° |
| 2026-05-04 22:39 | 31.33408 | -84.28953 | 7970 ft | 206 kts | 309° |
| 2026-05-04 22:40 | 31.34317 | -84.30252 | 8117 ft | 206 kts | 308° |
| 2026-05-04 22:40 | 31.35228 | -84.31549 | 8272 ft | 207 kts | 309° |
| 2026-05-04 22:40 | 31.36143 | -84.32845 | 8424 ft | 207 kts | 309° |
| 2026-05-04 22:40 | 31.37058 | -84.34139 | 8577 ft | 206 kts | 308° |
| 2026-05-04 22:41 | 31.37975 | -84.35429 | 8728 ft | 206 kts | 309° |
| 2026-05-04 22:41 | 31.38890 | -84.36719 | 8882 ft | 206 kts | 308° |
| 2026-05-04 22:41 | 31.39727 | -84.38073 | 9050 ft | 205 kts | 302° |
| 2026-05-04 22:41 | 31.40488 | -84.39461 | 9300 ft | 201 kts | 302° |
| 2026-05-04 22:42 | 31.41229 | -84.40814 | 9556 ft | 199 kts | 302° |
| 2026-05-04 22:42 | 31.41903 | -84.42041 | 9790 ft | 199 kts | 302° |
| 2026-05-04 22:42 | 31.42651 | -84.43396 | 10037 ft | 198 kts | 302° |
| 2026-05-04 22:42 | 31.43400 | -84.44748 | 10273 ft | 198 kts | 302° |
| 2026-05-04 22:43 | 31.44137 | -84.46074 | 10503 ft | 198 kts | 302° |
| 2026-05-04 22:43 | 31.44706 | -84.47095 | 10685 ft | 198 kts | 302° |
| 2026-05-04 22:43 | 31.44855 | -84.47360 | 10736 ft | 198 kts | 302° |
| 2026-05-04 22:43 | 31.45620 | -84.48704 | 10980 ft | 199 kts | 302° |
| 2026-05-04 22:44 | 31.46392 | -84.50057 | 11214 ft | 200 kts | 302° |
| 2026-05-04 22:44 | 31.47163 | -84.51406 | 11506 ft | 199 kts | 302° |
| 2026-05-04 22:44 | 31.47938 | -84.52742 | 11802 ft | 197 kts | 305° |
| 2026-05-04 22:44 | 31.49035 | -84.53666 | 12102 ft | 201 kts | 332° |
| 2026-05-04 22:45 | 31.50341 | -84.54281 | 12403 ft | 203 kts | 334° |
| 2026-05-04 22:45 | 31.53001 | -84.55486 | 13009 ft | 206 kts | 335° |
| 2026-05-04 22:45 | 31.54315 | -84.56135 | 13327 ft | 204 kts | 329° |
| 2026-05-04 22:46 | 31.55592 | -84.56879 | 13641 ft | 205 kts | 329° |
| 2026-05-04 22:46 | 31.56871 | -84.57634 | 13939 ft | 206 kts | 329° |
| 2026-05-04 22:46 | 31.58140 | -84.58380 | 14222 ft | 207 kts | 329° |
| 2026-05-04 22:46 | 31.59434 | -84.59138 | 14500 ft | 208 kts | 328° |
| 2026-05-04 22:47 | 31.60731 | -84.59890 | 14784 ft | 208 kts | 329° |
| 2026-05-04 22:47 | 31.62032 | -84.60641 | 15069 ft | 209 kts | 329° |
| 2026-05-04 22:47 | 31.63340 | -84.61390 | 15363 ft | 209 kts | 329° |
| 2026-05-04 22:47 | 31.64651 | -84.62136 | 15656 ft | 209 kts | 329° |
| 2026-05-04 22:48 | 31.65966 | -84.62881 | 15955 ft | 210 kts | 329° |
| 2026-05-04 22:48 | 31.67283 | -84.63621 | 16251 ft | 210 kts | 329° |
| 2026-05-04 22:48 | 31.68606 | -84.64359 | 16557 ft | 210 kts | 328° |
| 2026-05-04 22:48 | 31.69929 | -84.65102 | 16859 ft | 211 kts | 328° |
| 2026-05-04 22:49 | 31.71258 | -84.65838 | 17165 ft | 211 kts | 328° |
| 2026-05-04 22:49 | 31.72597 | -84.66560 | 17481 ft | 212 kts | 329° |
| 2026-05-04 22:49 | 31.73947 | -84.67274 | 17797 ft | 213 kts | 329° |
| 2026-05-04 22:49 | 31.75298 | -84.67994 | 18117 ft | 213 kts | 329° |
| 2026-05-04 22:50 | 31.76635 | -84.68704 | 18421 ft | 214 kts | 329° |
| 2026-05-04 22:50 | 31.77854 | -84.69348 | 18667 ft | 215 kts | 329° |
| 2026-05-04 22:50 | 31.79220 | -84.70065 | 18945 ft | 215 kts | 329° |
| 2026-05-04 22:50 | 31.80590 | -84.70782 | 19227 ft | 216 kts | 329° |
| 2026-05-04 22:51 | 31.81966 | -84.71499 | 19511 ft | 216 kts | 329° |
| 2026-05-04 22:51 | 31.83344 | -84.72217 | 19798 ft | 217 kts | 329° |
| 2026-05-04 22:51 | 31.84735 | -84.72938 | 19986 ft | 223 kts | 329° |
| 2026-05-04 22:51 | 31.86183 | -84.73698 | 19988 ft | 232 kts | 329° |
| 2026-05-04 22:52 | 31.87667 | -84.74485 | 19993 ft | 236 kts | 329° |
| 2026-05-04 22:52 | 31.89174 | -84.75290 | 19997 ft | 239 kts | 329° |
| 2026-05-04 22:52 | 31.90693 | -84.76105 | 19994 ft | 241 kts | 329° |
| 2026-05-04 22:52 | 31.92220 | -84.76930 | 19998 ft | 242 kts | 329° |
| 2026-05-04 22:53 | 31.93730 | -84.77748 | 19995 ft | 242 kts | 329° |
| 2026-05-04 22:53 | 31.95281 | -84.78591 | 19996 ft | 242 kts | 329° |
| 2026-05-04 22:53 | 31.96813 | -84.79425 | 19994 ft | 242 kts | 329° |
| 2026-05-04 22:53 | 31.98344 | -84.80261 | 19995 ft | 243 kts | 329° |
| 2026-05-04 22:54 | 31.99854 | -84.81088 | 19997 ft | 243 kts | 329° |
| 2026-05-04 22:54 | 32.01384 | -84.81928 | 19992 ft | 243 kts | 329° |
| 2026-05-04 22:54 | 32.02912 | -84.82769 | 19995 ft | 242 kts | 329° |
| 2026-05-04 22:54 | 32.04439 | -84.83612 | 19993 ft | 242 kts | 329° |
| 2026-05-04 22:55 | 32.05966 | -84.84458 | 19991 ft | 242 kts | 329° |
| 2026-05-04 22:55 | 32.07492 | -84.85303 | 19990 ft | 243 kts | 329° |
| 2026-05-04 22:55 | 32.09020 | -84.86154 | 19971 ft | 243 kts | 329° |
| 2026-05-04 22:55 | 32.10542 | -84.87008 | 19973 ft | 242 kts | 328° |
| 2026-05-04 22:56 | 32.12058 | -84.87870 | 19968 ft | 242 kts | 329° |
| 2026-05-04 22:56 | 32.13422 | -84.88632 | 19963 ft | 242 kts | 329° |
| 2026-05-04 22:56 | 32.14937 | -84.89491 | 19966 ft | 242 kts | 328° |
| 2026-05-04 22:56 | 32.16457 | -84.90352 | 19961 ft | 242 kts | 329° |
| 2026-05-04 22:57 | 32.17977 | -84.91209 | 19961 ft | 242 kts | 329° |
| 2026-05-04 22:57 | 32.19498 | -84.92065 | 19959 ft | 242 kts | 329° |
| 2026-05-04 22:57 | 32.21019 | -84.92920 | 19959 ft | 242 kts | 329° |
| 2026-05-04 22:57 | 32.22540 | -84.93779 | 19960 ft | 242 kts | 329° |
| 2026-05-04 22:58 | 32.24060 | -84.94638 | 19955 ft | 242 kts | 329° |
| 2026-05-04 22:58 | 32.25561 | -84.95487 | 19954 ft | 242 kts | 329° |
| 2026-05-04 22:58 | 32.27077 | -84.96347 | 19956 ft | 242 kts | 329° |
| 2026-05-04 22:58 | 32.28597 | -84.97210 | 19956 ft | 242 kts | 329° |
| 2026-05-04 22:59 | 32.30114 | -84.98069 | 19955 ft | 242 kts | 329° |
| 2026-05-04 22:59 | 32.31631 | -84.98933 | 19954 ft | 242 kts | 329° |
| 2026-05-04 22:59 | 32.33147 | -84.99800 | 19942 ft | 242 kts | 329° |
| 2026-05-04 22:59 | 32.34668 | -85.00659 | 19950 ft | 243 kts | 329° |
| 2026-05-04 23:00 | 32.36188 | -85.01524 | 19947 ft | 242 kts | 329° |
| 2026-05-04 23:00 | 32.37703 | -85.02395 | 19936 ft | 242 kts | 329° |
| 2026-05-04 23:00 | 32.39220 | -85.03267 | 19945 ft | 242 kts | 329° |
| 2026-05-04 23:00 | 32.40737 | -85.04142 | 19944 ft | 242 kts | 329° |
| 2026-05-04 23:01 | 32.42252 | -85.05016 | 19938 ft | 242 kts | 329° |
| 2026-05-04 23:01 | 32.43769 | -85.05882 | 19941 ft | 242 kts | 329° |
| 2026-05-04 23:01 | 32.45281 | -85.06756 | 19964 ft | 241 kts | 329° |
| 2026-05-04 23:01 | 32.46789 | -85.07628 | 19968 ft | 242 kts | 329° |
| 2026-05-04 23:02 | 32.48299 | -85.08504 | 19971 ft | 242 kts | 329° |
| 2026-05-04 23:02 | 32.49653 | -85.09289 | 19972 ft | 241 kts | 329° |
| 2026-05-04 23:02 | 32.51160 | -85.10165 | 19982 ft | 241 kts | 329° |
| 2026-05-04 23:02 | 32.52675 | -85.11018 | 19982 ft | 242 kts | 335° |
| 2026-05-04 23:03 | 32.54356 | -85.11336 | 19981 ft | 248 kts | 352° |
| 2026-05-04 23:03 | 32.56085 | -85.11400 | 19984 ft | 249 kts | 354° |
| 2026-05-04 23:03 | 32.57237 | -85.11426 | 19978 ft | 250 kts | 354° |
| 2026-05-04 23:03 | 32.58975 | -85.11457 | 19982 ft | 250 kts | 354° |
| 2026-05-04 23:04 | 32.61287 | -85.11498 | 19984 ft | 251 kts | 354° |
| 2026-05-04 23:04 | 32.62463 | -85.11526 | 19974 ft | 250 kts | 353° |
| 2026-05-04 23:04 | 32.64774 | -85.11577 | 19985 ft | 251 kts | 354° |
| 2026-05-04 23:04 | 32.65962 | -85.11595 | 19887 ft | 254 kts | 354° |
| 2026-05-04 23:05 | 32.67744 | -85.11628 | 19752 ft | 257 kts | 354° |
| 2026-05-04 23:05 | 32.69520 | -85.11667 | 19604 ft | 259 kts | 354° |
| 2026-05-04 23:05 | 32.71320 | -85.11707 | 19476 ft | 259 kts | 354° |
| 2026-05-04 23:05 | 32.73123 | -85.11733 | 19335 ft | 259 kts | 356° |
| 2026-05-04 23:06 | 32.74428 | -85.10708 | 19160 ft | 261 kts | 127° |
| 2026-05-04 23:06 | 32.73819 | -85.11671 | 18736 ft | 197 kts | 266° |
| 2026-05-04 23:06 | 32.74358 | -85.13105 | 18548 ft | 213 kts | 310° |
| 2026-05-04 23:06 | 32.75272 | -85.14579 | 18243 ft | 230 kts | 297° |
| 2026-05-04 23:07 | 32.76023 | -85.16311 | 17847 ft | 241 kts | 293° |
| 2026-05-04 23:07 | 32.76809 | -85.18085 | 17456 ft | 246 kts | 306° |
| 2026-05-04 23:07 | 32.78224 | -85.19253 | 17081 ft | 257 kts | 338° |
| 2026-05-04 23:07 | 32.79995 | -85.19629 | 16710 ft | 261 kts | 350° |
| 2026-05-04 23:08 | 32.81812 | -85.19818 | 16340 ft | 262 kts | 351° |
| 2026-05-04 23:08 | 32.83376 | -85.19956 | 16022 ft | 262 kts | 352° |
| 2026-05-04 23:08 | 32.85194 | -85.20113 | 15654 ft | 261 kts | 352° |
| 2026-05-04 23:08 | 32.87005 | -85.20269 | 15295 ft | 260 kts | 352° |
| 2026-05-04 23:09 | 32.88785 | -85.20425 | 14940 ft | 259 kts | 352° |
| 2026-05-04 23:09 | 32.90581 | -85.20586 | 14584 ft | 258 kts | 352° |
| 2026-05-04 23:09 | 32.92368 | -85.20753 | 14237 ft | 257 kts | 352° |
| 2026-05-04 23:09 | 32.94147 | -85.20919 | 13890 ft | 256 kts | 352° |
| 2026-05-04 23:10 | 32.95917 | -85.21080 | 13502 ft | 254 kts | 352° |
| 2026-05-04 23:10 | 32.97677 | -85.21253 | 13115 ft | 253 kts | 352° |
| 2026-05-04 23:10 | 32.99427 | -85.21428 | 12735 ft | 252 kts | 352° |
| 2026-05-04 23:10 | 33.01168 | -85.21599 | 12356 ft | 250 kts | 352° |
| 2026-05-04 23:11 | 33.02900 | -85.21774 | 11982 ft | 249 kts | 352° |
| 2026-05-04 23:11 | 33.04622 | -85.21796 | 11610 ft | 249 kts | 8° |
| 2026-05-04 23:11 | 33.06251 | -85.21073 | 11244 ft | 251 kts | 27° |
| 2026-05-04 23:11 | 33.07549 | -85.19665 | 10886 ft | 255 kts | 47° |
| 2026-05-04 23:12 | 33.08657 | -85.18001 | 10525 ft | 256 kts | 49° |
| 2026-05-04 23:12 | 33.09740 | -85.16320 | 10173 ft | 255 kts | 50° |
| 2026-05-04 23:12 | 33.10792 | -85.14666 | 9998 ft | 249 kts | 50° |
| 2026-05-04 23:12 | 33.11815 | -85.13050 | 9995 ft | 240 kts | 50° |
| 2026-05-04 23:13 | 33.12813 | -85.11465 | 9998 ft | 237 kts | 50° |
| 2026-05-04 23:13 | 33.13799 | -85.09899 | 9994 ft | 236 kts | 50° |
| 2026-05-04 23:13 | 33.14782 | -85.08337 | 9993 ft | 235 kts | 50° |
| 2026-05-04 23:13 | 33.15764 | -85.06783 | 9995 ft | 235 kts | 50° |
| 2026-05-04 23:14 | 33.16745 | -85.05229 | 9991 ft | 234 kts | 50° |
| 2026-05-04 23:14 | 33.17604 | -85.03868 | 9990 ft | 234 kts | 50° |
| 2026-05-04 23:14 | 33.18604 | -85.02281 | 9993 ft | 234 kts | 50° |
| 2026-05-04 23:14 | 33.19587 | -85.00724 | 9989 ft | 234 kts | 50° |
| 2026-05-04 23:15 | 33.20571 | -84.99168 | 9992 ft | 234 kts | 50° |
| 2026-05-04 23:15 | 33.21554 | -84.97614 | 9990 ft | 234 kts | 50° |
| 2026-05-04 23:15 | 33.22538 | -84.96061 | 9996 ft | 234 kts | 50° |
| 2026-05-04 23:15 | 33.23525 | -84.94515 | 9998 ft | 234 kts | 49° |
| 2026-05-04 23:16 | 33.24548 | -84.92995 | 9996 ft | 235 kts | 48° |
| 2026-05-04 23:16 | 33.25582 | -84.91480 | 9998 ft | 235 kts | 48° |
| 2026-05-04 23:16 | 33.26599 | -84.89988 | 10003 ft | 235 kts | 47° |
| 2026-05-04 23:16 | 33.27631 | -84.88476 | 10009 ft | 235 kts | 48° |
| 2026-05-04 23:17 | 33.28664 | -84.86964 | 10011 ft | 235 kts | 48° |
| 2026-05-04 23:17 | 33.29698 | -84.85453 | 10004 ft | 235 kts | 48° |
| 2026-05-04 23:17 | 33.30735 | -84.83942 | 10004 ft | 235 kts | 48° |
| 2026-05-04 23:17 | 33.31771 | -84.82432 | 10005 ft | 235 kts | 48° |
| 2026-05-04 23:18 | 33.32803 | -84.80931 | 10008 ft | 235 kts | 48° |
| 2026-05-04 23:18 | 33.33847 | -84.79414 | 10003 ft | 235 kts | 47° |
| 2026-05-04 23:18 | 33.34886 | -84.77907 | 10002 ft | 234 kts | 48° |
| 2026-05-04 23:18 | 33.35921 | -84.76406 | 10004 ft | 234 kts | 47° |
| 2026-05-04 23:19 | 33.36962 | -84.74899 | 10008 ft | 235 kts | 47° |
| 2026-05-04 23:19 | 33.38002 | -84.73391 | 10008 ft | 235 kts | 47° |
| 2026-05-04 23:19 | 33.39042 | -84.71882 | 10003 ft | 235 kts | 47° |
| 2026-05-04 23:19 | 33.40086 | -84.70376 | 10004 ft | 235 kts | 47° |
| 2026-05-04 23:20 | 33.41128 | -84.68872 | 9997 ft | 235 kts | 47° |
| 2026-05-04 23:20 | 33.42095 | -84.67478 | 10000 ft | 235 kts | 47° |
| 2026-05-04 23:20 | 33.43098 | -84.66034 | 9996 ft | 235 kts | 47° |
| 2026-05-04 23:20 | 33.44147 | -84.64531 | 10002 ft | 235 kts | 47° |
| 2026-05-04 23:21 | 33.45195 | -84.63026 | 10002 ft | 235 kts | 47° |
| 2026-05-04 23:21 | 33.46242 | -84.61521 | 9994 ft | 235 kts | 47° |
| 2026-05-04 23:21 | 33.47291 | -84.60016 | 9994 ft | 235 kts | 47° |
| 2026-05-04 23:21 | 33.48342 | -84.58508 | 9996 ft | 236 kts | 47° |
| 2026-05-04 23:22 | 33.49392 | -84.57002 | 9998 ft | 236 kts | 47° |
| 2026-05-04 23:22 | 33.50446 | -84.55495 | 9992 ft | 235 kts | 47° |
| 2026-05-04 23:22 | 33.51498 | -84.53994 | 9997 ft | 235 kts | 47° |
| 2026-05-04 23:22 | 33.52553 | -84.52497 | 9997 ft | 235 kts | 47° |
| 2026-05-04 23:23 | 33.53608 | -84.50995 | 9997 ft | 235 kts | 47° |
| 2026-05-04 23:23 | 33.54657 | -84.49492 | 10000 ft | 234 kts | 49° |
| 2026-05-04 23:23 | 33.55281 | -84.47703 | 9994 ft | 237 kts | 79° |
| 2026-05-04 23:23 | 33.55453 | -84.45736 | 9998 ft | 238 kts | 84° |
| 2026-05-04 23:24 | 33.55590 | -84.43750 | 9995 ft | 239 kts | 84° |
| 2026-05-04 23:24 | 33.55725 | -84.41759 | 9996 ft | 240 kts | 84° |
| 2026-05-04 23:24 | 33.55858 | -84.39767 | 9996 ft | 240 kts | 84° |
| 2026-05-04 23:24 | 33.55994 | -84.37771 | 9995 ft | 240 kts | 84° |
| 2026-05-04 23:25 | 33.56133 | -84.35775 | 9890 ft | 244 kts | 84° |
| 2026-05-04 23:25 | 33.56277 | -84.33703 | 9494 ft | 253 kts | 84° |
| 2026-05-04 23:25 | 33.56425 | -84.31585 | 9111 ft | 256 kts | 84° |
| 2026-05-04 23:25 | 33.56577 | -84.29461 | 8725 ft | 256 kts | 84° |
| 2026-05-04 23:26 | 33.56732 | -84.27333 | 8350 ft | 256 kts | 84° |
| 2026-05-04 23:26 | 33.56887 | -84.25248 | 7979 ft | 255 kts | 84° |
| 2026-05-04 23:26 | 33.57030 | -84.23339 | 7644 ft | 254 kts | 84° |
| 2026-05-04 23:26 | 33.57193 | -84.21233 | 7277 ft | 252 kts | 84° |
| 2026-05-04 23:27 | 33.57360 | -84.19142 | 6920 ft | 251 kts | 84° |
| 2026-05-04 23:27 | 33.57530 | -84.17061 | 6476 ft | 253 kts | 84° |
| 2026-05-04 23:27 | 33.57705 | -84.14943 | 5845 ft | 257 kts | 84° |
| 2026-05-04 23:27 | 33.57890 | -84.12814 | 5223 ft | 257 kts | 84° |
| 2026-05-04 23:28 | 33.58099 | -84.10692 | 4603 ft | 253 kts | 81° |
| 2026-05-04 23:28 | 33.58825 | -84.08801 | 3969 ft | 253 kts | 48° |
| 2026-05-04 23:28 | 33.60303 | -84.07712 | 3362 ft | 251 kts | 13° |
| 2026-05-04 23:28 | 33.62022 | -84.07591 | 2753 ft | 247 kts | 356° |
| 2026-05-04 23:29 | 33.63712 | -84.07713 | 2508 ft | 235 kts | 354° |
| 2026-05-04 23:29 | 33.65288 | -84.07917 | 2499 ft | 222 kts | 340° |
| 2026-05-04 23:29 | 33.66467 | -84.08961 | 2514 ft | 214 kts | 301° |
| 2026-05-04 23:29 | 33.66802 | -84.10642 | 2510 ft | 208 kts | 263° |
| 2026-05-04 23:30 | 33.66503 | -84.12330 | 2507 ft | 207 kts | 255° |
| 2026-05-04 23:30 | 33.65160 | -84.13842 | 2488 ft | 206 kts | 262° |
| 2026-05-04 23:30 | 33.65054 | -84.15545 | 2401 ft | 209 kts | 271° |
| 2026-05-04 23:30 | 33.64629 | -84.16881 | 2442 ft | 0 kts | 277° |
| 2026-05-04 23:31 | 33.64856 | -84.18475 | 2298 ft | 210 kts | 279° |
| 2026-05-04 23:31 | 33.65107 | -84.20197 | 2195 ft | 212 kts | 277° |
| 2026-05-04 23:31 | 33.65247 | -84.21945 | 2174 ft | 209 kts | 271° |
| 2026-05-04 23:31 | 33.65342 | -84.23690 | 2158 ft | 209 kts | 268° |
| 2026-05-04 23:32 | 33.65250 | -84.25383 | 2095 ft | 194 kts | 263° |
| 2026-05-04 23:32 | 33.65145 | -84.26770 | 2168 ft | 150 kts | 264° |
| 2026-05-04 23:32 | 33.65072 | -84.27849 | 2113 ft | 139 kts | 264° |
| 2026-05-04 23:32 | 33.65014 | -84.28991 | 2080 ft | 135 kts | 263° |
| 2026-05-04 23:33 | 33.64969 | -84.30122 | 2010 ft | 136 kts | 267° |
| 2026-05-04 23:33 | 33.64980 | -84.31230 | 2037 ft | 133 kts | 268° |
| 2026-05-04 23:33 | 33.64974 | -84.32335 | 2019 ft | 133 kts | 265° |
| 2026-05-04 23:33 | 33.64936 | -84.33496 | 1827 ft | 140 kts | 270° |
| 2026-05-04 23:34 | 33.64992 | -84.34630 | 1765 ft | 133 kts | 269° |
| 2026-05-04 23:34 | 33.65001 | -84.35749 | 1735 ft | 135 kts | 268° |
| 2026-05-04 23:34 | 33.65009 | -84.36874 | 1653 ft | 135 kts | 268° |
| 2026-05-04 23:34 | 33.64997 | -84.38010 | 1527 ft | 139 kts | 266° |
| 2026-05-04 23:35 | 33.64970 | -84.39183 | 1298 ft | 141 kts | 269° |
| 2026-05-04 23:35 | 33.64958 | -84.40350 | 1185 ft | 136 kts | 268° |
| 2026-05-04 23:35 | 33.64955 | -84.41466 | 1029 ft | 128 kts | 270° |
| 2026-05-04 23:35 | 33.64953 | -84.42354 | 1003 ft | 86 kts | 270° |
| 2026-05-04 23:36 | 33.64974 | -84.42890 | 1003 ft | 35 kts | 310° |
| 2026-05-04 23:36 | 33.65064 | -84.42999 | 1003 ft | 17 kts | 279° |
| 2026-05-04 23:36 | 33.65065 | -84.43134 | 1002 ft | 10 kts | 279° |
| 2026-05-04 23:36 | 33.65068 | -84.43157 | 1002 ft | 0 kts | 270° |
| 2026-05-04 23:38 | 33.65068 | -84.43158 | 1002 ft | 3 kts | 273° |
| 2026-05-04 23:38 | 33.65183 | -84.43199 | 1003 ft | 23 kts | 31° |
| 2026-05-04 23:38 | 33.65198 | -84.43020 | 1003 ft | 25 kts | 91° |
| 2026-05-04 23:39 | 33.65204 | -84.42802 | 1003 ft | 27 kts | 86° |
| 2026-05-04 23:39 | 33.65194 | -84.42585 | 1003 ft | 20 kts | 108° |
| 2026-05-04 23:39 | 33.65165 | -84.42406 | 1003 ft | 14 kts | 99° |
| 2026-05-04 23:39 | 33.65191 | -84.42361 | 1003 ft | 0 kts | 358° |